KACY/ACY METAR and TAF weather

Enter ICAO airport designator
Station Type Date Time Source
KACY METAR 2022/06/25 22:54 UTC NOAA

KACY 252254Z AUTO 17007KT 10SM CLR 28/18 A3009 RMK AO2 SLP189 T02780183


Station Type Date Time Source
KACY Decoded METAR 2022/06/25 22:54 UTC NOAA

ATLANTIC CITY INTERNATIONAL, NJ, United States (KACY) 39-28N 74-35W 35M
Jun 25, 2022 - 06:54 PM EDT / 2022.06.25 2254 UTC
Wind: from the S (170 degrees) at 8 MPH (7 KT):0
Visibility: 10 mile(s):0
Sky conditions: clear
Temperature: 82.0 F (27.8 C)
Dew Point: 64.9 F (18.3 C)
Relative Humidity: 56%
Pressure (altimeter): 30.09 in. Hg (1018 hPa)
ob: KACY 252254Z AUTO 17007KT 10SM CLR 28/18 A3009 RMK AO2 SLP189 T02780183
cycle: 23

Station Type Date Time Source
KACY TAF 2022/06/25 18:23 UTC NOAA

TAF KACY 251720Z 2518/2618 22005KT P6SM FEW045 FEW250
FM251900 19006KT P6SM FEW045 SCT250
FM260300 VRB04KT P6SM FEW035 FEW250
FM261200 VRB04KT P6SM FEW250
FM261500 20006KT P6SM FEW250
FM261700 18008KT P6SM SCT250

Example: see airport list